sensor_id;sensor_type;location;lat;lon;timestamp;pressure;altitude;pressure_sealevel;temperature;humidity
22651;BME280;11492;42.646;23.400;2024-01-06T00:01:51;94858.97;;;6.56;74.54
22651;BME280;11492;42.646;23.400;2024-01-06T00:04:16;94878.84;;;6.62;74.55
22651;BME280;11492;42.646;23.400;2024-01-06T00:06:42;94881.41;;;6.62;74.23
22651;BME280;11492;42.646;23.400;2024-01-06T00:09:08;94879.97;;;6.60;73.79
22651;BME280;11492;42.646;23.400;2024-01-06T00:11:34;94889.44;;;6.59;74.55
22651;BME280;11492;42.646;23.400;2024-01-06T00:14:00;94876.28;;;6.62;75.09
22651;BME280;11492;42.646;23.400;2024-01-06T00:16:26;94862.38;;;6.65;75.05
22651;BME280;11492;42.646;23.400;2024-01-06T00:18:52;94856.09;;;6.67;74.95
22651;BME280;11492;42.646;23.400;2024-01-06T00:21:17;94863.78;;;6.67;75.37
22651;BME280;11492;42.646;23.400;2024-01-06T00:23:43;94888.16;;;6.63;75.39
22651;BME280;11492;42.646;23.400;2024-01-06T00:26:10;94871.31;;;6.61;75.66
22651;BME280;11492;42.646;23.400;2024-01-06T00:28:37;94880.16;;;6.66;75.76
22651;BME280;11492;42.646;23.400;2024-01-06T00:31:06;94877.28;;;6.69;76.11
22651;BME280;11492;42.646;23.400;2024-01-06T00:33:32;94862.06;;;6.68;76.87
22651;BME280;11492;42.646;23.400;2024-01-06T00:35:57;94859.78;;;6.65;76.79
22651;BME280;11492;42.646;23.400;2024-01-06T00:38:23;94892.00;;;6.67;77.01
22651;BME280;11492;42.646;23.400;2024-01-06T00:40:49;94881.72;;;6.51;77.50
22651;BME280;11492;42.646;23.400;2024-01-06T00:43:15;94885.41;;;6.57;77.77
22651;BME280;11492;42.646;23.400;2024-01-06T00:45:41;94850.00;;;6.37;76.74
22651;BME280;11492;42.646;23.400;2024-01-06T00:48:06;94897.44;;;6.56;76.99
22651;BME280;11492;42.646;23.400;2024-01-06T00:50:32;94882.69;;;6.50;76.83
22651;BME280;11492;42.646;23.400;2024-01-06T00:52:58;94854.81;;;6.47;76.82
22651;BME280;11492;42.646;23.400;2024-01-06T00:55:24;94852.56;;;6.45;76.57
22651;BME280;11492;42.646;23.400;2024-01-06T00:57:51;94875.81;;;6.59;76.42
22651;BME280;11492;42.646;23.400;2024-01-06T01:00:16;94874.81;;;6.52;76.14
22651;BME280;11492;42.646;23.400;2024-01-06T01:02:42;94880.94;;;6.51;75.79
22651;BME280;11492;42.646;23.400;2024-01-06T01:05:09;94867.63;;;6.47;76.10
22651;BME280;11492;42.646;23.400;2024-01-06T01:07:35;94863.31;;;6.48;75.70
22651;BME280;11492;42.646;23.400;2024-01-06T01:10:01;94860.22;;;6.21;75.84
22651;BME280;11492;42.646;23.400;2024-01-06T01:12:27;94877.69;;;6.33;75.88
22651;BME280;11492;42.646;23.400;2024-01-06T01:14:53;94867.94;;;6.37;76.21
22651;BME280;11492;42.646;23.400;2024-01-06T01:17:19;94855.88;;;6.29;76.46
22651;BME280;11492;42.646;23.400;2024-01-06T01:19:45;94886.66;;;6.29;76.98
22651;BME280;11492;42.646;23.400;2024-01-06T01:22:12;94865.94;;;6.15;74.13
22651;BME280;11492;42.646;23.400;2024-01-06T01:24:38;94841.16;;;6.23;72.96
22651;BME280;11492;42.646;23.400;2024-01-06T01:27:04;94861.50;;;6.33;73.76
22651;BME280;11492;42.646;23.400;2024-01-06T01:29:30;94856.53;;;6.23;72.68
22651;BME280;11492;42.646;23.400;2024-01-06T01:31:56;94838.38;;;6.09;72.03
22651;BME280;11492;42.646;23.400;2024-01-06T01:34:22;94845.63;;;6.29;71.19
22651;BME280;11492;42.646;23.400;2024-01-06T01:36:48;94855.91;;;6.45;70.97
22651;BME280;11492;42.646;23.400;2024-01-06T01:39:13;94836.34;;;6.36;72.42
22651;BME280;11492;42.646;23.400;2024-01-06T01:41:39;94846.31;;;6.39;72.19
22651;BME280;11492;42.646;23.400;2024-01-06T01:44:07;94806.03;;;6.08;71.71
22651;BME280;11492;42.646;23.400;2024-01-06T01:46:33;94840.53;;;6.37;71.98
22651;BME280;11492;42.646;23.400;2024-01-06T01:49:01;94833.75;;;6.13;70.75
22651;BME280;11492;42.646;23.400;2024-01-06T01:51:36;94815.84;;;6.28;70.71
22651;BME280;11492;42.646;23.400;2024-01-06T01:54:04;94837.81;;;6.46;70.89
22651;BME280;11492;42.646;23.400;2024-01-06T01:56:31;94832.38;;;6.49;71.30
22651;BME280;11492;42.646;23.400;2024-01-06T01:59:06;94831.56;;;6.41;71.96
22651;BME280;11492;42.646;23.400;2024-01-06T02:01:34;94809.25;;;6.26;72.11
22651;BME280;11492;42.646;23.400;2024-01-06T02:04:01;94815.81;;;6.21;72.11
22651;BME280;11492;42.646;23.400;2024-01-06T02:06:27;94839.72;;;6.29;72.24
22651;BME280;11492;42.646;23.400;2024-01-06T02:08:53;94803.16;;;6.11;72.62
22651;BME280;11492;42.646;23.400;2024-01-06T02:11:19;94837.63;;;6.24;73.01
22651;BME280;11492;42.646;23.400;2024-01-06T02:13:45;94829.25;;;6.15;74.33
22651;BME280;11492;42.646;23.400;2024-01-06T02:16:10;94819.19;;;6.13;73.93
22651;BME280;11492;42.646;23.400;2024-01-06T02:18:36;94793.38;;;6.07;74.71
22651;BME280;11492;42.646;23.400;2024-01-06T02:21:02;94787.28;;;6.00;74.59
22651;BME280;11492;42.646;23.400;2024-01-06T02:23:29;94806.03;;;6.08;75.17
22651;BME280;11492;42.646;23.400;2024-01-06T02:25:55;94798.50;;;6.15;75.83
22651;BME280;11492;42.646;23.400;2024-01-06T02:28:22;94786.84;;;6.12;76.84
22651;BME280;11492;42.646;23.400;2024-01-06T02:30:49;94793.72;;;6.12;75.93
22651;BME280;11492;42.646;23.400;2024-01-06T02:33:15;94783.63;;;6.18;75.29
22651;BME280;11492;42.646;23.400;2024-01-06T02:35:41;94785.53;;;6.00;75.55
22651;BME280;11492;42.646;23.400;2024-01-06T02:38:07;94795.44;;;5.96;75.37
22651;BME280;11492;42.646;23.400;2024-01-06T02:40:34;94792.88;;;6.03;74.11
22651;BME280;11492;42.646;23.400;2024-01-06T02:42:59;94788.72;;;6.10;74.10
22651;BME280;11492;42.646;23.400;2024-01-06T02:45:25;94780.25;;;6.10;74.30
22651;BME280;11492;42.646;23.400;2024-01-06T02:47:51;94775.59;;;6.05;75.09
22651;BME280;11492;42.646;23.400;2024-01-06T02:50:17;94777.31;;;5.89;75.22
22651;BME280;11492;42.646;23.400;2024-01-06T02:52:46;94789.78;;;5.76;75.58
22651;BME280;11492;42.646;23.400;2024-01-06T02:55:13;94782.28;;;5.75;75.65
22651;BME280;11492;42.646;23.400;2024-01-06T02:57:39;94749.84;;;5.58;76.39
22651;BME280;11492;42.646;23.400;2024-01-06T03:00:07;94754.50;;;5.55;75.95
22651;BME280;11492;42.646;23.400;2024-01-06T03:02:33;94746.78;;;5.47;76.06
22651;BME280;11492;42.646;23.400;2024-01-06T03:04:59;94757.38;;;5.60;76.62
22651;BME280;11492;42.646;23.400;2024-01-06T03:07:24;94739.00;;;5.64;76.77
22651;BME280;11492;42.646;23.400;2024-01-06T03:09:50;94743.19;;;5.73;76.62
22651;BME280;11492;42.646;23.400;2024-01-06T03:12:16;94739.84;;;5.72;76.39
22651;BME280;11492;42.646;23.400;2024-01-06T03:14:41;94746.25;;;5.76;76.21
22651;BME280;11492;42.646;23.400;2024-01-06T03:17:07;94740.91;;;5.62;76.21
22651;BME280;11492;42.646;23.400;2024-01-06T03:19:36;94748.28;;;5.65;76.89
22651;BME280;11492;42.646;23.400;2024-01-06T03:22:02;94750.34;;;5.62;76.67
22651;BME280;11492;42.646;23.400;2024-01-06T03:24:28;94718.47;;;5.56;75.69
22651;BME280;11492;42.646;23.400;2024-01-06T03:26:54;94711.47;;;5.66;75.05
22651;BME280;11492;42.646;23.400;2024-01-06T03:29:19;94740.66;;;5.81;74.38
22651;BME280;11492;42.646;23.400;2024-01-06T03:31:45;94736.50;;;5.88;73.62
22651;BME280;11492;42.646;23.400;2024-01-06T03:34:12;94744.53;;;5.93;72.82
22651;BME280;11492;42.646;23.400;2024-01-06T03:36:39;94738.25;;;5.95;71.85
22651;BME280;11492;42.646;23.400;2024-01-06T03:39:05;94731.56;;;6.10;71.46
22651;BME280;11492;42.646;23.400;2024-01-06T03:41:31;94728.53;;;6.14;71.45
22651;BME280;11492;42.646;23.400;2024-01-06T03:43:57;94722.63;;;6.06;71.89
22651;BME280;11492;42.646;23.400;2024-01-06T03:46:23;94733.81;;;6.21;72.55
22651;BME280;11492;42.646;23.400;2024-01-06T03:48:49;94732.38;;;6.10;72.22
22651;BME280;11492;42.646;23.400;2024-01-06T03:51:15;94736.88;;;6.16;71.77
22651;BME280;11492;42.646;23.400;2024-01-06T03:53:41;94702.59;;;6.01;72.11
22651;BME280;11492;42.646;23.400;2024-01-06T03:56:07;94719.88;;;6.15;72.30
22651;BME280;11492;42.646;23.400;2024-01-06T03:58:33;94722.13;;;6.18;72.30
22651;BME280;11492;42.646;23.400;2024-01-06T04:00:59;94728.22;;;6.17;72.87
22651;BME280;11492;42.646;23.400;2024-01-06T04:03:25;94731.88;;;6.15;71.94
22651;BME280;11492;42.646;23.400;2024-01-06T04:05:50;94732.88;;;6.22;69.74
22651;BME280;11492;42.646;23.400;2024-01-06T04:08:17;94733.50;;;6.23;70.45
22651;BME280;11492;42.646;23.400;2024-01-06T04:10:43;94748.09;;;6.23;71.22
22651;BME280;11492;42.646;23.400;2024-01-06T04:13:11;94748.09;;;6.23;71.55
22651;BME280;11492;42.646;23.400;2024-01-06T04:15:37;94739.75;;;6.21;71.99
22651;BME280;11492;42.646;23.400;2024-01-06T04:18:04;94729.81;;;6.18;71.79
22651;BME280;11492;42.646;23.400;2024-01-06T04:20:31;94727.88;;;6.20;71.92
22651;BME280;11492;42.646;23.400;2024-01-06T04:22:57;94729.81;;;6.18;71.75
22651;BME280;11492;42.646;23.400;2024-01-06T04:25:23;94729.50;;;6.21;72.37
22651;BME280;11492;42.646;23.400;2024-01-06T04:27:48;94730.31;;;6.22;72.71
22651;BME280;11492;42.646;23.400;2024-01-06T04:30:15;94738.94;;;6.21;72.42
22651;BME280;11492;42.646;23.400;2024-01-06T04:32:41;94731.41;;;6.19;72.47
22651;BME280;11492;42.646;23.400;2024-01-06T04:35:07;94745.19;;;6.18;72.94
22651;BME280;11492;42.646;23.400;2024-01-06T04:37:33;94750.00;;;6.13;73.05
22651;BME280;11492;42.646;23.400;2024-01-06T04:40:00;94764.75;;;6.11;72.59
22651;BME280;11492;42.646;23.400;2024-01-06T04:42:26;94757.19;;;6.10;73.11
22651;BME280;11492;42.646;23.400;2024-01-06T04:44:52;94763.59;;;6.14;73.06
22651;BME280;11492;42.646;23.400;2024-01-06T04:47:18;94739.09;;;5.96;73.38
22651;BME280;11492;42.646;23.400;2024-01-06T04:49:44;94750.13;;;6.04;73.08
22651;BME280;11492;42.646;23.400;2024-01-06T04:52:10;94753.16;;;5.99;73.42
22651;BME280;11492;42.646;23.400;2024-01-06T04:54:36;94759.88;;;5.93;73.47
22651;BME280;11492;42.646;23.400;2024-01-06T04:57:03;94754.59;;;5.86;74.12
22651;BME280;11492;42.646;23.400;2024-01-06T04:59:30;94710.81;;;5.56;74.33
22651;BME280;11492;42.646;23.400;2024-01-06T05:01:57;94750.56;;;5.84;74.21
22651;BME280;11492;42.646;23.400;2024-01-06T05:04:22;94758.44;;;5.82;74.53
22651;BME280;11492;42.646;23.400;2024-01-06T05:06:48;94731.16;;;5.66;74.74
22651;BME280;11492;42.646;23.400;2024-01-06T05:09:15;94755.69;;;5.76;75.06
22651;BME280;11492;42.646;23.400;2024-01-06T05:11:43;94744.78;;;5.74;74.20
22651;BME280;11492;42.646;23.400;2024-01-06T05:14:09;94717.22;;;5.60;74.67
22651;BME280;11492;42.646;23.400;2024-01-06T05:16:35;94699.91;;;5.46;74.34
22651;BME280;11492;42.646;23.400;2024-01-06T05:19:01;94750.25;;;5.71;74.58
22651;BME280;11492;42.646;23.400;2024-01-06T05:21:28;94755.53;;;5.70;74.93
22651;BME280;11492;42.646;23.400;2024-01-06T05:23:54;94734.00;;;5.55;74.11
22651;BME280;11492;42.646;23.400;2024-01-06T05:26:20;94738.78;;;5.58;74.53
22651;BME280;11492;42.646;23.400;2024-01-06T05:28:46;94729.34;;;5.58;73.44
22651;BME280;11492;42.646;23.400;2024-01-06T05:31:11;94722.34;;;5.60;73.08
22651;BME280;11492;42.646;23.400;2024-01-06T05:33:39;94714.50;;;5.62;72.02
22651;BME280;11492;42.646;23.400;2024-01-06T05:36:05;94722.81;;;5.64;71.81
22651;BME280;11492;42.646;23.400;2024-01-06T05:38:31;94723.94;;;5.61;72.80
22651;BME280;11492;42.646;23.400;2024-01-06T05:40:57;94726.84;;;5.66;72.11
22651;BME280;11492;42.646;23.400;2024-01-06T05:43:23;94718.81;;;5.61;72.70
22651;BME280;11492;42.646;23.400;2024-01-06T05:45:48;94691.41;;;5.38;73.09
22651;BME280;11492;42.646;23.400;2024-01-06T05:48:14;94709.38;;;5.62;71.64
22651;BME280;11492;42.646;23.400;2024-01-06T05:50:40;94688.41;;;5.50;71.28
22651;BME280;11492;42.646;23.400;2024-01-06T05:53:07;94658.16;;;5.46;71.65
22651;BME280;11492;42.646;23.400;2024-01-06T05:55:33;94713.41;;;5.64;72.24
22651;BME280;11492;42.646;23.400;2024-01-06T05:57:58;94707.78;;;5.61;72.21
22651;BME280;11492;42.646;23.400;2024-01-06T06:00:24;94693.06;;;5.55;72.72
22651;BME280;11492;42.646;23.400;2024-01-06T06:02:50;94703.47;;;5.61;72.65
22651;BME280;11492;42.646;23.400;2024-01-06T06:05:16;94684.25;;;5.49;71.94
22651;BME280;11492;42.646;23.400;2024-01-06T06:07:42;94717.38;;;5.67;72.33
22651;BME280;11492;42.646;23.400;2024-01-06T06:10:10;94700.72;;;5.63;73.03
22651;BME280;11492;42.646;23.400;2024-01-06T06:12:36;94705.25;;;5.69;73.21
22651;BME280;11492;42.646;23.400;2024-01-06T06:15:03;94668.22;;;5.40;72.88
22651;BME280;11492;42.646;23.400;2024-01-06T06:17:30;94716.09;;;5.63;73.05
22651;BME280;11492;42.646;23.400;2024-01-06T06:19:57;94700.22;;;5.51;73.51
22651;BME280;11492;42.646;23.400;2024-01-06T06:22:23;94699.44;;;5.59;72.70
22651;BME280;11492;42.646;23.400;2024-01-06T06:24:49;94705.97;;;5.53;73.48
22651;BME280;11492;42.646;23.400;2024-01-06T06:27:14;94696.41;;;5.55;73.40
22651;BME280;11492;42.646;23.400;2024-01-06T06:29:40;94712.25;;;5.59;72.78
22651;BME280;11492;42.646;23.400;2024-01-06T06:32:06;94717.06;;;5.62;73.20
22651;BME280;11492;42.646;23.400;2024-01-06T06:34:33;94717.69;;;5.64;73.26
22651;BME280;11492;42.646;23.400;2024-01-06T06:36:58;94711.94;;;5.62;73.99
22651;BME280;11492;42.646;23.400;2024-01-06T06:39:24;94714.00;;;5.58;73.96
22651;BME280;11492;42.646;23.400;2024-01-06T06:41:50;94692.25;;;5.54;73.79
22651;BME280;11492;42.646;23.400;2024-01-06T06:44:16;94707.69;;;5.70;74.03
22651;BME280;11492;42.646;23.400;2024-01-06T06:46:41;94691.28;;;5.63;73.97
22651;BME280;11492;42.646;23.400;2024-01-06T06:49:07;94688.16;;;5.77;72.30
22651;BME280;11492;42.646;23.400;2024-01-06T06:51:32;94728.03;;;5.87;72.78
22651;BME280;11492;42.646;23.400;2024-01-06T06:53:58;94701.59;;;5.79;71.95
22651;BME280;11492;42.646;23.400;2024-01-06T06:56:24;94721.63;;;5.91;71.83
22651;BME280;11492;42.646;23.400;2024-01-06T06:58:49;94679.19;;;5.73;72.01
22651;BME280;11492;42.646;23.400;2024-01-06T07:01:15;94685.13;;;5.89;71.15
22651;BME280;11492;42.646;23.400;2024-01-06T07:03:41;94708.03;;;6.06;70.70
22651;BME280;11492;42.646;23.400;2024-01-06T07:06:06;94704.97;;;5.95;70.94
22651;BME280;11492;42.646;23.400;2024-01-06T07:08:32;94663.13;;;5.63;70.72
22651;BME280;11492;42.646;23.400;2024-01-06T07:10:57;94709.28;;;5.79;71.11
22651;BME280;11492;42.646;23.400;2024-01-06T07:13:23;94708.81;;;5.99;70.56
22651;BME280;11492;42.646;23.400;2024-01-06T07:15:49;94710.56;;;5.83;70.68
22651;BME280;11492;42.646;23.400;2024-01-06T07:18:14;94689.91;;;5.76;71.13
22651;BME280;11492;42.646;23.400;2024-01-06T07:20:40;94702.59;;;6.01;71.00
22651;BME280;11492;42.646;23.400;2024-01-06T07:23:05;94686.91;;;6.12;71.03
22651;BME280;11492;42.646;23.400;2024-01-06T07:25:31;94702.28;;;6.28;70.04
22651;BME280;11492;42.646;23.400;2024-01-06T07:27:56;94706.13;;;6.47;69.62
22651;BME280;11492;42.646;23.400;2024-01-06T07:30:23;94709.31;;;6.57;69.46
22651;BME280;11492;42.646;23.400;2024-01-06T07:32:48;94700.97;;;6.63;69.60
22651;BME280;11492;42.646;23.400;2024-01-06T07:35:15;94687.78;;;6.74;68.91
22651;BME280;11492;42.646;23.400;2024-01-06T07:37:41;94678.66;;;6.71;68.12
22651;BME280;11492;42.646;23.400;2024-01-06T07:40:07;94701.53;;;6.89;67.62
22651;BME280;11492;42.646;23.400;2024-01-06T07:42:33;94684.53;;;6.96;67.14
22651;BME280;11492;42.646;23.400;2024-01-06T07:44:58;94678.81;;;6.78;67.92
22651;BME280;11492;42.646;23.400;2024-01-06T07:47:24;94673.19;;;6.74;67.35
22651;BME280;11492;42.646;23.400;2024-01-06T07:49:50;94690.63;;;6.95;67.81
22651;BME280;11492;42.646;23.400;2024-01-06T07:52:16;94694.78;;;6.96;67.10
22651;BME280;11492;42.646;23.400;2024-01-06T07:54:42;94686.91;;;6.97;67.10
22651;BME280;11492;42.646;23.400;2024-01-06T07:57:07;94694.56;;;7.13;67.16
22651;BME280;11492;42.646;23.400;2024-01-06T07:59:33;94688.25;;;7.23;67.02
22651;BME280;11492;42.646;23.400;2024-01-06T08:01:58;94698.16;;;7.34;66.75
22651;BME280;11492;42.646;23.400;2024-01-06T08:04:24;94691.47;;;7.25;66.52
22651;BME280;11492;42.646;23.400;2024-01-06T08:06:50;94682.56;;;7.05;67.34
22651;BME280;11492;42.646;23.400;2024-01-06T08:09:15;94716.53;;;7.15;66.83
22651;BME280;11492;42.646;23.400;2024-01-06T08:11:41;94706.34;;;7.29;66.29
22651;BME280;11492;42.646;23.400;2024-01-06T08:14:08;94702.28;;;7.43;66.20
22651;BME280;11492;42.646;23.400;2024-01-06T08:16:33;94681.25;;;7.47;66.10
22651;BME280;11492;42.646;23.400;2024-01-06T08:18:59;94682.25;;;7.68;66.16
22651;BME280;11492;42.646;23.400;2024-01-06T08:21:25;94699.84;;;7.79;65.42
22651;BME280;11492;42.646;23.400;2024-01-06T08:23:50;94657.03;;;7.71;65.11
22651;BME280;11492;42.646;23.400;2024-01-06T08:26:16;94712.59;;;7.95;64.75
22651;BME280;11492;42.646;23.400;2024-01-06T08:28:41;94641.66;;;7.64;64.85
22651;BME280;11492;42.646;23.400;2024-01-06T08:31:07;94677.13;;;7.90;64.39
22651;BME280;11492;42.646;23.400;2024-01-06T08:33:32;94708.28;;;8.17;64.93
22651;BME280;11492;42.646;23.400;2024-01-06T08:35:58;94660.94;;;8.12;64.22
22651;BME280;11492;42.646;23.400;2024-01-06T08:38:23;94697.88;;;8.33;64.76
22651;BME280;11492;42.646;23.400;2024-01-06T08:40:49;94653.97;;;8.20;64.72
22651;BME280;11492;42.646;23.400;2024-01-06T08:43:16;94698.91;;;8.46;64.88
22651;BME280;11492;42.646;23.400;2024-01-06T08:45:41;94668.38;;;8.43;63.84
22651;BME280;11492;42.646;23.400;2024-01-06T08:48:07;94686.16;;;8.52;64.05
22651;BME280;11492;42.646;23.400;2024-01-06T08:50:33;94689.63;;;8.59;63.65
22651;BME280;11492;42.646;23.400;2024-01-06T08:52:58;94679.16;;;8.61;64.73
22651;BME280;11492;42.646;23.400;2024-01-06T08:55:24;94681.31;;;8.71;65.83
22651;BME280;11492;42.646;23.400;2024-01-06T08:57:50;94673.59;;;8.71;65.79
22651;BME280;11492;42.646;23.400;2024-01-06T09:00:16;94675.53;;;8.84;66.14
22651;BME280;11492;42.646;23.400;2024-01-06T09:02:42;94682.41;;;8.91;66.04
22651;BME280;11492;42.646;23.400;2024-01-06T09:05:08;94679.72;;;8.99;65.57
22651;BME280;11492;42.646;23.400;2024-01-06T09:07:33;94660.19;;;9.04;64.82
22651;BME280;11492;42.646;23.400;2024-01-06T09:09:59;94656.91;;;9.10;65.60
22651;BME280;11492;42.646;23.400;2024-01-06T09:12:25;94660.97;;;9.19;65.40
22651;BME280;11492;42.646;23.400;2024-01-06T09:14:50;94657.81;;;9.17;65.24
22651;BME280;11492;42.646;23.400;2024-01-06T09:17:16;94631.72;;;9.06;65.01
22651;BME280;11492;42.646;23.400;2024-01-06T09:19:42;94656.53;;;9.27;64.36
22651;BME280;11492;42.646;23.400;2024-01-06T09:22:07;94635.59;;;9.16;64.53
22651;BME280;11492;42.646;23.400;2024-01-06T09:24:33;94637.97;;;9.32;64.37
22651;BME280;11492;42.646;23.400;2024-01-06T09:26:59;94635.09;;;9.41;64.30
22651;BME280;11492;42.646;23.400;2024-01-06T09:29:24;94603.63;;;9.45;64.86
22651;BME280;11492;42.646;23.400;2024-01-06T09:31:50;94626.56;;;9.90;63.01
22651;BME280;11492;42.646;23.400;2024-01-06T09:34:15;94622.81;;;9.78;63.84
22651;BME280;11492;42.646;23.400;2024-01-06T09:36:41;94621.84;;;9.79;63.98
22651;BME280;11492;42.646;23.400;2024-01-06T09:39:06;94597.66;;;9.94;62.84
22651;BME280;11492;42.646;23.400;2024-01-06T09:41:33;94610.03;;;10.05;62.23
22651;BME280;11492;42.646;23.400;2024-01-06T09:43:59;94601.13;;;10.07;62.61
22651;BME280;11492;42.646;23.400;2024-01-06T09:46:26;94608.56;;;9.96;62.40
22651;BME280;11492;42.646;23.400;2024-01-06T09:48:53;94592.78;;;9.85;62.58
22651;BME280;11492;42.646;23.400;2024-01-06T09:51:21;94608.59;;;9.82;62.92
22651;BME280;11492;42.646;23.400;2024-01-06T09:54:01;94584.38;;;9.62;62.71
22651;BME280;11492;42.646;23.400;2024-01-06T09:56:29;94605.41;;;9.80;63.09
22651;BME280;11492;42.646;23.400;2024-01-06T09:58:55;94586.41;;;9.67;62.28
22651;BME280;11492;42.646;23.400;2024-01-06T10:01:21;94570.94;;;9.67;62.54
22651;BME280;11492;42.646;23.400;2024-01-06T10:03:47;94555.88;;;9.64;62.27
22651;BME280;11492;42.646;23.400;2024-01-06T10:06:16;94584.78;;;9.80;62.69
22651;BME280;11492;42.646;23.400;2024-01-06T10:08:52;94546.59;;;9.69;63.13
22651;BME280;11492;42.646;23.400;2024-01-06T10:11:22;94583.28;;;9.85;63.10
22651;BME280;11492;42.646;23.400;2024-01-06T10:13:49;94580.41;;;9.80;62.82
22651;BME280;11492;42.646;23.400;2024-01-06T10:16:16;94569.31;;;9.80;62.58
22651;BME280;11492;42.646;23.400;2024-01-06T10:18:44;94541.81;;;9.66;62.63
22651;BME280;11492;42.646;23.400;2024-01-06T10:21:09;94514.50;;;9.51;62.56
22651;BME280;11492;42.646;23.400;2024-01-06T10:23:36;94530.66;;;9.59;63.08
22651;BME280;11492;42.646;23.400;2024-01-06T10:26:02;94547.50;;;9.82;63.10
22651;BME280;11492;42.646;23.400;2024-01-06T10:28:28;94527.00;;;9.89;60.80
22651;BME280;11492;42.646;23.400;2024-01-06T10:30:57;94525.81;;;9.91;60.69
22651;BME280;11492;42.646;23.400;2024-01-06T10:33:25;94544.19;;;10.09;60.07
22651;BME280;11492;42.646;23.400;2024-01-06T10:35:52;94535.47;;;10.10;59.37
22651;BME280;11492;42.646;23.400;2024-01-06T10:38:20;94494.03;;;9.84;59.40
22651;BME280;11492;42.646;23.400;2024-01-06T10:41:03;94521.31;;;9.99;59.07
22651;BME280;11492;42.646;23.400;2024-01-06T10:43:36;94538.63;;;10.05;59.28
22651;BME280;11492;42.646;23.400;2024-01-06T10:46:04;94512.19;;;10.03;58.88
22651;BME280;11492;42.646;23.400;2024-01-06T10:48:32;94514.63;;;10.05;59.67
22651;BME280;11492;42.646;23.400;2024-01-06T10:50:59;94525.50;;;10.00;58.57
22651;BME280;11492;42.646;23.400;2024-01-06T10:53:26;94522.16;;;10.06;59.02
22651;BME280;11492;42.646;23.400;2024-01-06T10:55:52;94497.88;;;9.95;59.61
22651;BME280;11492;42.646;23.400;2024-01-06T10:58:19;94508.06;;;10.09;58.96
22651;BME280;11492;42.646;23.400;2024-01-06T11:00:45;94480.97;;;9.92;60.16
22651;BME280;11492;42.646;23.400;2024-01-06T11:03:13;94508.66;;;10.04;59.25
22651;BME280;11492;42.646;23.400;2024-01-06T11:05:41;94503.50;;;10.04;59.54
22651;BME280;11492;42.646;23.400;2024-01-06T11:08:07;94492.97;;;9.99;60.06
22651;BME280;11492;42.646;23.400;2024-01-06T11:10:34;94479.31;;;10.05;60.42
22651;BME280;11492;42.646;23.400;2024-01-06T11:13:12;94495.81;;;10.11;60.13
22651;BME280;11492;42.646;23.400;2024-01-06T11:15:51;94454.50;;;10.04;59.94
22651;BME280;11492;42.646;23.400;2024-01-06T11:18:36;94446.56;;;10.06;59.37
22651;BME280;11492;42.646;23.400;2024-01-06T11:21:20;94451.66;;;10.26;59.33
22651;BME280;11492;42.646;23.400;2024-01-06T11:26:42;94463.69;;;11.05;58.49
22651;BME280;11492;42.646;23.400;2024-01-06T11:29:08;94442.72;;;11.97;58.67
22651;BME280;11492;42.646;23.400;2024-01-06T11:31:34;94442.72;;;11.97;58.67
22651;BME280;11492;42.646;23.400;2024-01-06T11:34:16;94419.53;;;16.21;47.08
22651;BME280;11492;42.646;23.400;2024-01-06T11:36:48;94406.22;;;16.56;44.12
22651;BME280;11492;42.646;23.400;2024-01-06T11:39:36;94424.22;;;17.57;43.73
22651;BME280;11492;42.646;23.400;2024-01-06T11:42:04;94403.06;;;18.93;40.32
22651;BME280;11492;42.646;23.400;2024-01-06T11:44:34;94406.47;;;18.56;40.39
22651;BME280;11492;42.646;23.400;2024-01-06T11:47:02;94332.78;;;18.80;39.93
22651;BME280;11492;42.646;23.400;2024-01-06T11:49:27;94394.59;;;20.42;37.36
22651;BME280;11492;42.646;23.400;2024-01-06T11:51:53;94388.03;;;21.50;34.89
22651;BME280;11492;42.646;23.400;2024-01-06T11:54:21;94362.66;;;21.10;35.44
22651;BME280;11492;42.646;23.400;2024-01-06T11:56:46;94364.50;;;20.54;35.57
22651;BME280;11492;42.646;23.400;2024-01-06T11:59:12;94335.75;;;20.33;35.90
22651;BME280;11492;42.646;23.400;2024-01-06T12:01:38;94360.34;;;20.58;35.22
22651;BME280;11492;42.646;23.400;2024-01-06T12:04:07;94340.59;;;21.01;34.64
22651;BME280;11492;42.646;23.400;2024-01-06T12:06:33;94354.13;;;20.74;34.86
22651;BME280;11492;42.646;23.400;2024-01-06T12:11:30;94363.06;;;19.45;37.38
22651;BME280;11492;42.646;23.400;2024-01-06T12:13:56;94330.09;;;18.75;38.83
22651;BME280;11492;42.646;23.400;2024-01-06T12:16:22;94322.75;;;18.14;39.61
22651;BME280;11492;42.646;23.400;2024-01-06T12:18:55;94317.94;;;17.58;41.29
22651;BME280;11492;42.646;23.400;2024-01-06T12:21:23;94307.69;;;17.08;42.11
22651;BME280;11492;42.646;23.400;2024-01-06T12:23:48;94308.59;;;16.47;42.60
22651;BME280;11492;42.646;23.400;2024-01-06T12:26:14;94331.28;;;16.24;42.48
22651;BME280;11492;42.646;23.400;2024-01-06T12:28:40;94330.81;;;15.82;43.55
22651;BME280;11492;42.646;23.400;2024-01-06T12:31:09;94356.78;;;15.37;44.57
22651;BME280;11492;42.646;23.400;2024-01-06T12:33:35;94373.38;;;14.96;45.60
22651;BME280;11492;42.646;23.400;2024-01-06T12:36:03;94374.59;;;14.46;46.54
22651;BME280;11492;42.646;23.400;2024-01-06T12:38:32;94367.00;;;13.86;47.86
22651;BME280;11492;42.646;23.400;2024-01-06T12:40:57;94326.97;;;13.34;49.14
22651;BME280;11492;42.646;23.400;2024-01-06T12:43:23;94347.94;;;13.32;49.96
22651;BME280;11492;42.646;23.400;2024-01-06T12:45:48;94324.22;;;12.98;50.11
22651;BME280;11492;42.646;23.400;2024-01-06T12:48:18;94343.88;;;13.12;51.32
22651;BME280;11492;42.646;23.400;2024-01-06T12:50:43;94338.88;;;13.17;50.68
22651;BME280;11492;42.646;23.400;2024-01-06T12:53:09;94334.41;;;13.30;49.89
22651;BME280;11492;42.646;23.400;2024-01-06T12:55:37;94313.44;;;13.32;50.53
22651;BME280;11492;42.646;23.400;2024-01-06T12:58:03;94340.00;;;13.51;50.61
22651;BME280;11492;42.646;23.400;2024-01-06T13:00:29;94325.00;;;13.53;50.56